Time;durP1;ratioP1;P1;durP2;ratioP2;P2;SDS_P1;SDS_P2;PMS_P1;PMS_P2;Temp;Humidity;BMP_temperature;BMP_pressure;BME280_temperature;BME280_humidity;BME280_pressure;Samples;Min_cycle;Max_cycle;Signal;HPM_P1;HPM_P2
2022/10/29 00:01:30;;;;;;;2.58;1.80;;;;;;;7.32;86.15;95798.00;5100170;28;20202;-75
2022/10/29 00:03:57;;;;;;;2.88;2.20;;;;;;;7.31;86.29;95791.00;5110834;28;20652;-76
2022/10/29 00:06:24;;;;;;;3.45;2.10;;;;;;;7.31;86.58;95793.69;5100791;28;20206;-74
2022/10/29 00:08:50;;;;;;;4.43;2.70;;;;;;;7.29;86.78;95778.88;5107225;28;20213;-76
2022/10/29 00:11:19;;;;;;;4.82;2.42;;;;;;;7.37;86.78;95786.41;5101592;28;20248;-73
2022/10/29 00:13:47;;;;;;;9.90;2.90;;;;;;;7.34;86.62;95786.94;5104425;28;20765;-76
2022/10/29 00:16:17;;;;;;;4.38;2.03;;;;;;;7.37;86.56;95787.22;5100972;28;20205;-75
2022/10/29 00:18:44;;;;;;;3.20;1.98;;;;;;;7.34;86.28;95781.56;5110440;28;20197;-75
2022/10/29 00:21:14;;;;;;;7.55;4.20;;;;;;;7.31;85.92;95782.91;5110668;28;20205;-75
2022/10/29 00:23:41;;;;;;;11.55;3.75;;;;;;;7.35;85.67;95783.97;5104895;28;20202;-74
2022/10/29 00:26:08;;;;;;;8.50;3.92;;;;;;;7.23;85.36;95769.22;5102565;28;20201;-75
2022/10/29 00:28:35;;;;;;;6.22;3.60;;;;;;;7.28;85.08;95779.97;5105459;28;20209;-75
2022/10/29 00:31:04;;;;;;;5.55;3.22;;;;;;;7.23;85.12;95775.44;5103375;28;20475;-75
2022/10/29 00:33:32;;;;;;;7.18;3.47;;;;;;;7.11;85.36;95767.66;5096837;28;20225;-75
2022/10/29 00:36:00;;;;;;;8.15;4.30;;;;;;;7.09;85.57;95767.16;5096921;28;20202;-75
2022/10/29 00:38:27;;;;;;;5.50;3.63;;;;;;;6.95;86.22;95758.06;5103729;28;20730;-75
2022/10/29 00:40:55;;;;;;;6.05;3.65;;;;;;;6.96;86.54;95759.66;5104230;28;20258;-75
2022/10/29 00:43:24;;;;;;;7.10;3.80;;;;;;;6.88;86.77;95768.31;5090871;28;20267;-75
2022/10/29 00:45:54;;;;;;;9.45;2.42;;;;;;;6.82;86.72;95758.66;5103416;28;20278;-76
2022/10/29 00:48:24;;;;;;;2.13;1.48;;;;;;;6.86;86.82;95762.38;5098092;28;20664;-73
2022/10/29 00:50:53;;;;;;;2.15;1.70;;;;;;;6.78;86.01;95762.97;5096540;28;20210;-74
2022/10/29 00:53:24;;;;;;;3.72;2.08;;;;;;;6.71;85.99;95762.44;5110067;28;20775;-75
2022/10/29 00:55:51;;;;;;;2.30;1.70;;;;;;;6.66;86.25;95767.88;5107161;28;20606;-75
2022/10/29 00:58:19;;;;;;;2.08;1.33;;;;;;;6.68;86.45;95763.00;5099811;28;20205;-75
2022/10/29 01:00:46;;;;;;;2.03;1.38;;;;;;;6.73;85.80;95771.06;5096498;28;20201;-75
2022/10/29 01:03:13;;;;;;;3.58;1.63;;;;;;;6.75;86.26;95767.00;5098955;28;20275;-75
2022/10/29 01:05:40;;;;;;;2.25;1.50;;;;;;;6.76;86.37;95770.50;5103696;28;20865;-75
2022/10/29 01:08:08;;;;;;;4.25;1.88;;;;;;;6.82;86.68;95769.44;5089057;28;20660;-76
2022/10/29 01:10:46;;;;;;;3.80;1.77;;;;;;;6.72;86.50;95766.75;5103118;28;20206;-76
2022/10/29 01:13:24;;;;;;;8.90;3.78;;;;;;;6.70;85.87;95758.13;5089826;28;20230;-75
2022/10/29 01:16:00;;;;;;;8.07;3.55;;;;;;;6.79;85.93;95753.81;5097506;28;20190;-74
2022/10/29 01:18:36;;;;;;;5.32;3.47;;;;;;;6.74;86.32;95753.81;5095519;28;20190;-75
2022/10/29 01:21:38;;;;;;;2.97;1.70;;;;;;;6.67;86.67;95739.88;5099186;28;20282;-75
2022/10/29 01:24:38;;;;;;;9.48;1.75;;;;;;;6.69;87.08;95740.41;5088844;28;20200;-75
2022/10/29 01:27:43;;;;;;;3.85;2.22;;;;;;;6.60;87.33;95733.94;5096701;28;20586;-76
2022/10/29 01:30:20;;;;;;;1.40;1.30;;;;;;;6.72;87.10;95723.66;5096565;28;20202;-74
2022/10/29 01:33:06;;;;;;;3.03;2.00;;;;;;;6.68;87.06;95730.72;5109438;28;20278;-74
2022/10/29 01:35:45;;;;;;;3.30;1.77;;;;;;;6.60;87.44;95736.66;5099018;28;20209;-74
2022/10/29 01:38:24;;;;;;;1.55;1.17;;;;;;;6.66;87.62;95732.88;5104025;28;20213;-74
2022/10/29 01:40:58;;;;;;;3.35;1.92;;;;;;;6.46;87.71;95738.31;5101988;28;20265;-75
2022/10/29 01:43:31;;;;;;;3.28;1.63;;;;;;;6.41;88.49;95737.25;5096410;28;20193;-75
2022/10/29 01:46:04;;;;;;;2.15;1.60;;;;;;;6.38;88.19;95748.56;5095429;28;20234;-75
2022/10/29 01:48:37;;;;;;;8.23;1.85;;;;;;;6.48;87.81;95744.22;5110369;28;20280;-75
2022/10/29 01:51:09;;;;;;;2.45;1.60;;;;;;;6.54;87.37;95727.00;5099810;28;20190;-75
2022/10/29 01:53:38;;;;;;;3.03;1.10;;;;;;;6.52;87.24;95737.22;5101553;28;20214;-75
2022/10/29 01:56:05;;;;;;;1.80;1.27;;;;;;;6.51;87.15;95731.03;5106333;28;20206;-75
2022/10/29 01:58:33;;;;;;;1.90;1.45;;;;;;;6.52;87.41;95729.16;5104797;28;20194;-75
2022/10/29 02:01:10;;;;;;;3.28;2.05;;;;;;;6.56;87.65;95732.91;5099530;28;20209;-75
2022/10/29 02:03:52;;;;;;;2.60;1.90;;;;;;;6.48;87.74;95736.97;5099849;28;20190;-75
2022/10/29 02:06:32;;;;;;;3.65;1.92;;;;;;;6.43;88.29;95735.06;5112888;28;20193;-75
2022/10/29 02:09:07;;;;;;;8.48;4.00;;;;;;;6.48;88.38;95726.19;5099442;28;20551;-75
2022/10/29 02:11:44;;;;;;;9.48;4.53;;;;;;;6.51;88.55;95730.22;5113415;28;20660;-75
2022/10/29 02:14:15;;;;;;;7.47;3.55;;;;;;;6.51;88.42;95724.84;5100023;28;20221;-74
2022/10/29 02:16:43;;;;;;;5.80;3.90;;;;;;;6.52;88.97;95721.06;5099302;28;20194;-75
2022/10/29 02:19:11;;;;;;;7.97;3.88;;;;;;;6.47;88.69;95718.38;5104881;28;20203;-75
2022/10/29 02:21:39;;;;;;;6.78;3.40;;;;;;;6.49;88.21;95705.47;5092466;28;20252;-75
2022/10/29 02:24:07;;;;;;;6.45;3.42;;;;;;;6.43;88.33;95708.16;5101460;28;20205;-74
2022/10/29 02:26:33;;;;;;;9.30;4.20;;;;;;;6.39;88.42;95712.50;5112795;28;20201;-75
2022/10/29 02:29:01;;;;;;;6.70;3.67;;;;;;;6.26;89.18;95718.47;5113149;28;20201;-75
2022/10/29 02:31:27;;;;;;;8.70;4.05;;;;;;;6.22;88.89;95714.69;5099136;28;20246;-75
2022/10/29 02:33:54;;;;;;;5.80;3.95;;;;;;;6.07;89.83;95722.81;5103243;28;20226;-75
2022/10/29 02:36:22;;;;;;;6.25;3.70;;;;;;;5.90;90.39;95724.97;5105811;28;20202;-75
2022/10/29 02:38:49;;;;;;;6.50;3.58;;;;;;;5.85;90.95;95711.53;5102481;28;20222;-75
2022/10/29 02:41:16;;;;;;;6.82;4.13;;;;;;;5.89;91.07;95718.78;5095004;28;20206;-75
2022/10/29 02:43:42;;;;;;;8.65;3.88;;;;;;;5.92;90.88;95706.69;5101979;28;20206;-75
2022/10/29 02:46:11;;;;;;;8.48;3.45;;;;;;;6.02;90.90;95712.03;5098763;28;20233;-75
2022/10/29 02:48:37;;;;;;;7.53;4.05;;;;;;;6.13;90.67;95712.84;5112182;28;20206;-75
2022/10/29 02:51:04;;;;;;;8.95;5.07;;;;;;;6.09;89.74;95712.59;5098441;28;20210;-75
2022/10/29 02:53:32;;;;;;;2.67;1.60;;;;;;;6.03;89.15;95713.66;5101986;28;20233;-75
2022/10/29 02:55:59;;;;;;;3.40;2.17;;;;;;;6.13;89.09;95713.66;5105647;28;20198;-75
2022/10/29 02:58:26;;;;;;;3.13;1.75;;;;;;;6.08;88.77;95713.66;5102938;28;20640;-75
2022/10/29 03:00:53;;;;;;;2.13;1.40;;;;;;;6.00;89.45;95715.03;5098126;28;20591;-75
2022/10/29 03:03:20;;;;;;;3.47;1.90;;;;;;;6.10;88.89;95714.19;5101070;28;20263;-75
2022/10/29 03:05:47;;;;;;;3.58;1.92;;;;;;;6.14;88.30;95709.88;5110173;28;20224;-75
2022/10/29 03:08:14;;;;;;;6.70;2.55;;;;;;;6.17;87.88;95706.63;5112001;28;20278;-75
2022/10/29 03:10:42;;;;;;;3.78;1.63;;;;;;;6.06;88.27;95707.75;5098037;28;20254;-75
2022/10/29 03:13:09;;;;;;;1.60;1.48;;;;;;;5.95;89.36;95715.03;5098918;28;20230;-75
2022/10/29 03:15:36;;;;;;;5.03;2.10;;;;;;;5.97;89.89;95706.69;5110790;28;20250;-75
2022/10/29 03:18:03;;;;;;;5.32;1.98;;;;;;;5.97;89.91;95704.00;5099218;28;20338;-76
2022/10/29 03:20:30;;;;;;;7.05;4.80;;;;;;;5.94;90.15;95704.53;5104741;28;20206;-76
2022/10/29 03:22:56;;;;;;;7.10;4.40;;;;;;;5.99;90.11;95696.47;5091291;28;20194;-76
2022/10/29 03:25:23;;;;;;;7.78;4.13;;;;;;;5.94;90.06;95699.16;5111130;28;20205;-75
2022/10/29 03:27:51;;;;;;;6.13;3.92;;;;;;;5.88;90.32;95703.72;5098507;28;20263;-75
2022/10/29 03:30:18;;;;;;;6.93;4.10;;;;;;;5.81;90.96;95700.50;5111390;28;20202;-75
2022/10/29 03:32:47;;;;;;;8.45;4.13;;;;;;;5.88;91.11;95695.66;5111454;28;20227;-75
2022/10/29 03:35:15;;;;;;;6.53;3.88;;;;;;;5.89;91.11;95707.22;5097852;28;20660;-75
2022/10/29 03:37:42;;;;;;;10.30;2.00;;;;;;;5.88;90.75;95706.41;5097257;28;20202;-76
2022/10/29 03:40:09;;;;;;;2.65;1.70;;;;;;;5.82;90.79;95698.59;5111300;28;20221;-75
2022/10/29 03:42:38;;;;;;;4.20;2.10;;;;;;;5.85;91.22;95690.00;5110257;28;20206;-75
2022/10/29 03:45:07;;;;;;;1.58;1.48;;;;;;;5.97;91.31;95695.94;5097887;28;20748;-75
2022/10/29 03:47:34;;;;;;;4.00;2.03;;;;;;;5.88;90.64;95689.44;5096479;28;20649;-75
2022/10/29 03:50:00;;;;;;;3.83;2.30;;;;;;;5.90;90.96;95692.69;5099409;28;20230;-75
2022/10/29 03:52:27;;;;;;;4.30;2.30;;;;;;;5.94;90.38;95688.41;5111277;28;20258;-75
2022/10/29 03:54:54;;;;;;;2.13;1.45;;;;;;;5.85;90.08;95690.00;5102749;28;20233;-75
2022/10/29 03:57:21;;;;;;;2.90;2.00;;;;;;;5.70;90.47;95688.16;5106526;28;20201;-75
2022/10/29 03:59:48;;;;;;;5.15;2.10;;;;;;;5.77;90.74;95695.91;5102173;28;20206;-75
2022/10/29 04:02:16;;;;;;;6.43;2.75;;;;;;;5.79;90.75;95691.88;5104217;28;20240;-75
2022/10/29 04:04:43;;;;;;;2.00;1.50;;;;;;;5.77;90.86;95701.28;5090789;28;20221;-75
2022/10/29 04:07:09;;;;;;;3.28;1.92;;;;;;;5.72;90.94;95694.06;5104125;28;20329;-74
2022/10/29 04:09:36;;;;;;;3.17;1.95;;;;;;;5.70;91.09;95699.69;5089767;28;20206;-75
2022/10/29 04:12:03;;;;;;;1.70;1.42;;;;;;;5.72;91.24;95702.94;5103335;28;20718;-75
2022/10/29 04:14:30;;;;;;;8.88;1.73;;;;;;;5.74;91.19;95709.91;5099928;28;20237;-75
2022/10/29 04:16:57;;;;;;;3.22;2.15;;;;;;;5.75;91.10;95695.38;5097014;28;20610;-75
2022/10/29 04:19:26;;;;;;;5.45;2.67;;;;;;;5.86;90.51;95702.38;5100605;28;20710;-76
2022/10/29 04:21:52;;;;;;;3.65;2.03;;;;;;;5.78;90.69;95714.47;5103624;28;20259;-76
2022/10/29 04:24:19;;;;;;;4.97;2.20;;;;;;;5.75;90.96;95703.44;5100710;28;20721;-75
2022/10/29 04:26:46;;;;;;;2.40;2.20;;;;;;;5.64;90.68;95714.22;5110668;28;20213;-76
2022/10/29 04:29:13;;;;;;;2.13;1.77;;;;;;;5.66;90.85;95722.00;5111048;28;20209;-76
2022/10/29 04:31:39;;;;;;;4.53;2.10;;;;;;;5.65;91.39;95723.88;5097178;28;20282;-74
2022/10/29 04:34:06;;;;;;;3.53;1.80;;;;;;;5.74;91.69;95715.31;5098931;28;20734;-75
2022/10/29 04:36:34;;;;;;;2.45;2.15;;;;;;;5.85;91.44;95722.28;5103661;28;20203;-75
2022/10/29 04:39:01;;;;;;;4.15;2.08;;;;;;;5.78;90.71;95719.84;5101723;28;20217;-75
2022/10/29 04:41:28;;;;;;;4.63;2.42;;;;;;;5.69;91.52;95722.28;5096565;28;20208;-75
2022/10/29 04:43:54;;;;;;;3.95;2.53;;;;;;;5.63;91.79;95723.34;5098387;28;20607;-76
2022/10/29 04:46:21;;;;;;;2.45;1.95;;;;;;;5.66;91.64;95720.13;5102829;28;20445;-76
2022/10/29 04:48:48;;;;;;;6.72;1.70;;;;;;;5.68;91.67;95717.97;5102282;28;20641;-75
2022/10/29 04:51:19;;;;;;;3.30;2.53;;;;;;;5.61;92.05;95717.44;5096459;28;20197;-75
2022/10/29 04:53:47;;;;;;;1.48;1.38;;;;;;;5.67;92.24;95724.44;5097633;28;20700;-75
2022/10/29 04:56:14;;;;;;;4.40;2.45;;;;;;;5.70;91.91;95715.84;5103453;28;20722;-75
2022/10/29 04:58:41;;;;;;;2.13;1.70;;;;;;;5.77;91.48;95722.81;5103126;28;20717;-76
2022/10/29 05:01:08;;;;;;;5.60;2.40;;;;;;;5.82;91.63;95717.44;5096469;28;20720;-76
2022/10/29 05:03:35;;;;;;;4.72;2.50;;;;;;;5.79;91.41;95717.97;5097030;28;20202;-76
2022/10/29 05:06:02;;;;;;;5.70;2.17;;;;;;;5.86;91.41;95715.81;5096594;28;20201;-75
2022/10/29 05:08:29;;;;;;;4.07;2.45;;;;;;;5.83;91.02;95719.03;5096658;28;20622;-76
2022/10/29 05:10:57;;;;;;;3.28;2.03;;;;;;;5.97;90.74;95720.13;5102799;28;20222;-76
2022/10/29 05:13:24;;;;;;;5.03;2.42;;;;;;;5.95;89.90;95711.53;5098196;28;20338;-77
2022/10/29 05:15:52;;;;;;;3.17;2.15;;;;;;;6.01;89.50;95710.47;5098422;28;20238;-77
2022/10/29 05:18:18;;;;;;;3.17;2.08;;;;;;;6.13;89.56;95710.97;5097106;28;20210;-77
2022/10/29 05:20:45;;;;;;;3.58;2.40;;;;;;;6.40;89.26;95716.81;5103327;28;20202;-77
2022/10/29 05:23:12;;;;;;;4.63;2.58;;;;;;;6.87;88.50;95712.03;5097578;28;20235;-79
2022/10/29 05:25:40;;;;;;;4.75;2.38;;;;;;;7.69;86.90;95708.50;5106306;28;20202;-78
2022/10/29 05:28:12;;;;;;;2.85;2.33;;;;;;;8.78;82.92;95705.25;5094959;28;20201;-77
2022/10/29 05:30:40;;;;;;;14.27;2.38;;;;;;;9.08;79.98;95696.75;5105418;28;20191;-78
2022/10/29 05:33:07;;;;;;;4.53;2.65;;;;;;;9.35;78.35;95711.50;5098973;28;20648;-77
2022/10/29 05:35:34;;;;;;;6.68;3.13;;;;;;;9.71;76.39;95709.84;5111317;28;20194;-78
2022/10/29 05:38:01;;;;;;;3.13;2.08;;;;;;;10.16;73.71;95715.59;5102139;28;20194;-78
2022/10/29 05:40:28;;;;;;;7.30;3.35;;;;;;;10.44;72.15;95706.44;5105173;28;21038;-78
2022/10/29 05:42:55;;;;;;;3.58;2.65;;;;;;;11.47;69.96;95708.66;5099978;28;20190;-80
2022/10/29 05:45:23;;;;;;;3.88;2.47;;;;;;;12.45;66.45;95702.13;5109343;28;20844;-76
2022/10/29 05:47:56;;;;;;;8.50;2.80;;;;;;;13.23;64.34;95701.63;5104562;28;20649;-79
2022/10/29 05:50:23;;;;;;;3.33;1.95;;;;;;;13.89;61.90;95703.09;5106344;28;20661;-78
2022/10/29 05:52:55;;;;;;;5.40;2.83;;;;;;;14.59;59.16;95707.28;5109511;28;20227;-79
2022/10/29 05:55:21;;;;;;;4.00;2.42;;;;;;;15.16;57.10;95695.97;5108262;28;20210;-78
2022/10/29 05:57:48;;;;;;;4.90;2.92;;;;;;;15.46;55.27;95689.31;5104250;28;20195;-80
2022/10/29 06:00:15;;;;;;;4.65;3.50;;;;;;;15.62;54.94;95698.53;5104857;28;20593;-79
2022/10/29 06:02:44;;;;;;;5.03;2.88;;;;;;;15.64;55.92;95696.28;5102625;28;20645;-75
2022/10/29 06:05:11;;;;;;;5.13;2.92;;;;;;;15.52;56.36;95698.91;5107058;28;20202;-77
2022/10/29 06:07:38;;;;;;;7.97;4.70;;;;;;;14.77;57.31;95708.81;5113145;28;20196;-77
2022/10/29 06:10:06;;;;;;;6.40;3.83;;;;;;;15.51;55.11;95705.50;5112942;28;20684;-76
2022/10/29 06:12:33;;;;;;;5.70;3.40;;;;;;;15.83;53.79;95714.94;5109920;28;20606;-78
2022/10/29 06:15:00;;;;;;;5.70;3.75;;;;;;;15.77;53.42;95712.75;5108926;28;20221;-78
2022/10/29 06:17:27;;;;;;;9.13;4.60;;;;;;;15.51;54.12;95710.16;5112074;28;20269;-78
2022/10/29 06:19:55;;;;;;;8.25;4.75;;;;;;;15.78;54.72;95714.34;5111856;28;20537;-77
2022/10/29 06:22:22;;;;;;;5.93;3.70;;;;;;;15.67;54.78;95710.41;5111582;28;20190;-77
2022/10/29 06:24:49;;;;;;;7.50;3.83;;;;;;;15.49;54.97;95709.69;5105004;28;20190;-75
2022/10/29 06:27:16;;;;;;;10.57;6.43;;;;;;;15.24;55.33;95708.75;5103093;28;20209;-79
2022/10/29 06:29:42;;;;;;;10.65;4.97;;;;;;;14.39;56.71;95716.13;5101540;28;20599;-76
2022/10/29 06:32:09;;;;;;;18.65;4.93;;;;;;;13.79;59.77;95719.75;5102048;28;20728;-77
2022/10/29 06:34:36;;;;;;;15.18;4.65;;;;;;;13.81;61.23;95715.56;5101318;28;20222;-74
2022/10/29 06:37:04;;;;;;;6.93;4.50;;;;;;;13.37;62.42;95708.53;5101908;28;20198;-80
2022/10/29 06:39:31;;;;;;;10.23;4.22;;;;;;;13.24;62.88;95703.22;5098142;28;20777;-77
2022/10/29 06:41:58;;;;;;;11.07;4.20;;;;;;;12.69;63.61;95709.94;5110921;28;20205;-78
2022/10/29 06:44:24;;;;;;;13.75;6.63;;;;;;;12.08;66.26;95716.94;5111516;28;20213;-78
2022/10/29 06:46:51;;;;;;;5.55;3.58;;;;;;;11.61;67.07;95714.84;5110683;28;20679;-79
2022/10/29 06:49:18;;;;;;;7.97;3.97;;;;;;;11.18;68.95;95719.88;5095999;28;20198;-79
2022/10/29 06:51:45;;;;;;;13.77;4.72;;;;;;;10.84;69.99;95714.88;5100901;28;20206;-77
2022/10/29 06:54:14;;;;;;;7.35;3.88;;;;;;;10.55;71.60;95724.09;5106827;28;20355;-75
2022/10/29 06:56:40;;;;;;;5.20;3.72;;;;;;;10.20;72.36;95727.47;5111235;28;20201;-77
2022/10/29 06:59:09;;;;;;;7.72;3.80;;;;;;;10.32;72.74;95733.22;5112170;28;20689;-81
2022/10/29 07:01:36;;;;;;;10.15;4.00;;;;;;;10.48;72.13;95729.13;5111682;28;20617;-79
2022/10/29 07:04:02;;;;;;;6.57;3.22;;;;;;;10.47;71.90;95727.53;5111732;28;20201;-81
2022/10/29 07:06:32;;;;;;;8.80;4.13;;;;;;;10.53;71.71;95730.94;5111870;28;20280;-83
2022/10/29 07:08:59;;;;;;;6.55;4.10;;;;;;;10.60;71.71;95732.16;5100453;28;20717;-78
2022/10/29 07:11:27;;;;;;;7.90;4.38;;;;;;;10.29;72.38;95736.50;5111518;28;20308;-77
2022/10/29 07:13:54;;;;;;;6.82;3.90;;;;;;;10.47;72.21;95732.94;5106712;28;20263;-79
2022/10/29 07:16:21;;;;;;;7.15;3.88;;;;;;;10.57;72.58;95738.16;5102051;28;20221;-79
2022/10/29 07:18:47;;;;;;;10.45;4.20;;;;;;;10.79;71.55;95744.81;5108763;28;20251;-78
2022/10/29 07:21:14;;;;;;;4.63;3.13;;;;;;;10.82;71.34;95744.19;5099931;28;20198;-77
2022/10/29 07:23:41;;;;;;;11.88;3.58;;;;;;;11.03;70.40;95739.97;5101027;28;20206;-79
2022/10/29 07:26:07;;;;;;;6.20;3.22;;;;;;;11.05;70.21;95743.19;5100493;28;20614;-78
2022/10/29 07:28:36;;;;;;;13.10;4.47;;;;;;;11.03;70.21;95745.41;5104316;28;20293;-74
2022/10/29 07:31:02;;;;;;;6.85;3.95;;;;;;;11.16;70.09;95747.28;5102113;28;20202;-79
2022/10/29 07:33:30;;;;;;;5.45;2.80;;;;;;;11.45;69.14;95751.56;5101581;28;20197;-79
2022/10/29 07:35:58;;;;;;;7.03;3.65;;;;;;;11.90;67.80;95736.16;5100877;28;20225;-77
2022/10/29 07:38:24;;;;;;;7.40;4.00;;;;;;;12.07;67.38;95742.50;5103765;28;20244;-79
2022/10/29 07:40:51;;;;;;;6.10;3.72;;;;;;;12.16;67.03;95733.63;5102199;28;20198;-80
2022/10/29 07:43:19;;;;;;;7.28;3.70;;;;;;;12.07;67.27;95736.28;5101932;28;20245;-78
2022/10/29 07:45:49;;;;;;;9.35;4.75;;;;;;;12.01;67.56;95727.47;5098861;28;20218;-79
2022/10/29 07:48:16;;;;;;;7.47;4.28;;;;;;;12.07;67.34;95725.41;5099687;28;20372;-81
2022/10/29 07:50:43;;;;;;;7.45;4.78;;;;;;;11.90;66.93;95720.66;5101247;28;20607;-79
2022/10/29 07:53:10;;;;;;;13.95;8.30;;;;;;;11.87;67.49;95729.44;5102879;28;20637;-78
2022/10/29 07:55:37;;;;;;;7.25;3.75;;;;;;;12.14;66.79;95727.69;5100745;28;20252;-79
2022/10/29 07:58:05;;;;;;;12.95;5.22;;;;;;;12.17;66.72;95732.50;5101157;28;20607;-80
2022/10/29 08:00:34;;;;;;;10.25;4.43;;;;;;;12.49;65.88;95721.34;5102352;28;20198;-78
2022/10/29 08:03:02;;;;;;;9.32;4.63;;;;;;;12.61;65.62;95718.81;5102387;28;20202;-77
2022/10/29 08:05:30;;;;;;;18.63;5.05;;;;;;;12.68;65.26;95730.06;5105972;28;20201;-81
2022/10/29 08:07:57;;;;;;;9.82;4.65;;;;;;;13.04;64.40;95729.06;5101350;28;20194;-80
2022/10/29 08:10:25;;;;;;;17.60;5.15;;;;;;;13.21;63.98;95715.53;5106127;28;20193;-80
2022/10/29 08:12:52;;;;;;;9.63;4.57;;;;;;;13.16;63.66;95707.50;5101611;28;20720;-77
2022/10/29 08:15:19;;;;;;;11.93;4.25;;;;;;;13.32;63.05;95705.16;5101825;28;20233;-79
2022/10/29 08:17:47;;;;;;;9.30;5.13;;;;;;;13.14;63.55;95702.38;5100514;28;20198;-79
2022/10/29 08:20:15;;;;;;;12.63;8.43;;;;;;;13.35;63.19;95693.63;5100045;28;20283;-80
2022/10/29 08:22:42;;;;;;;12.32;5.65;;;;;;;13.42;62.94;95705.63;5103864;28;20197;-79
2022/10/29 08:25:10;;;;;;;16.73;8.45;;;;;;;13.50;63.23;95691.25;5104333;28;20254;-80
2022/10/29 08:27:37;;;;;;;12.30;5.68;;;;;;;13.76;63.20;95698.59;5102463;28;20193;-81
2022/10/29 08:30:05;;;;;;;10.80;5.03;;;;;;;13.85;62.71;95692.03;5103429;28;20193;-77
2022/10/29 08:32:31;;;;;;;16.67;8.60;;;;;;;13.92;62.40;95691.56;5102675;28;20194;-78
2022/10/29 08:34:58;;;;;;;9.00;4.93;;;;;;;13.83;61.92;95699.72;5103734;28;20233;-78
2022/10/29 08:37:26;;;;;;;10.18;4.18;;;;;;;13.93;61.73;95695.88;5101357;28;20191;-82
2022/10/29 08:39:53;;;;;;;15.40;8.18;;;;;;;13.90;62.01;95688.34;5100509;28;20213;-80
2022/10/29 08:42:38;;;;;;;7.82;4.10;;;;;;;14.01;61.64;95684.16;5100403;28;20198;-78
2022/10/29 08:45:23;;;;;;;9.13;5.18;;;;;;;14.02;61.70;95685.75;5100369;28;20194;-79
2022/10/29 08:48:09;;;;;;;15.52;8.82;;;;;;;14.31;60.77;95674.16;5100212;28;20201;-80
2022/10/29 08:50:40;;;;;;;13.82;8.35;;;;;;;14.46;60.39;95672.84;5100518;28;20193;-80
2022/10/29 08:53:17;;;;;;;14.25;7.93;;;;;;;14.60;59.86;95675.38;5100640;28;20198;-78
2022/10/29 08:55:45;;;;;;;9.27;4.88;;;;;;;14.66;59.63;95672.13;5100389;28;20266;-80
2022/10/29 08:58:22;;;;;;;7.50;4.15;;;;;;;14.85;59.60;95667.06;5098917;28;20186;-82
2022/10/29 09:00:55;;;;;;;8.30;5.43;;;;;;;14.96;59.31;95669.41;5100529;28;20668;-77
2022/10/29 09:03:23;;;;;;;11.90;4.90;;;;;;;14.87;58.99;95673.00;5099568;28;20182;-80
2022/10/29 09:05:57;;;;;;;6.78;4.40;;;;;;;15.15;58.26;95661.59;5099807;28;20197;-79
2022/10/29 09:08:34;;;;;;;8.50;4.65;;;;;;;15.14;58.12;95669.00;5101829;28;20218;-77
2022/10/29 09:11:13;;;;;;;7.43;4.47;;;;;;;15.42;57.81;95666.56;5104842;28;20201;-75
2022/10/29 09:13:51;;;;;;;11.68;5.30;;;;;;;15.53;57.10;95665.00;5102741;28;20266;-78
2022/10/29 09:16:36;;;;;;;12.75;6.90;;;;;;;15.62;57.06;95664.97;5098759;28;20222;-80
2022/10/29 09:19:19;;;;;;;12.95;6.72;;;;;;;15.73;56.67;95654.44;5102571;28;20193;-79
2022/10/29 09:21:55;;;;;;;14.73;7.03;;;;;;;15.88;57.13;95654.59;5099366;28;20191;-78
2022/10/29 09:24:30;;;;;;;15.82;7.43;;;;;;;15.68;55.91;95660.91;5101915;28;20434;-78
2022/10/29 09:26:58;;;;;;;7.22;5.35;;;;;;;15.87;56.05;95649.47;5102033;28;20185;-76
2022/10/29 09:29:47;;;;;;;11.38;4.95;;;;;;;15.84;56.63;95644.69;5099500;28;20193;-77
2022/10/29 09:32:20;;;;;;;9.95;5.20;;;;;;;16.07;54.88;95648.66;5099526;28;20588;-80
2022/10/29 09:34:49;;;;;;;7.72;5.90;;;;;;;16.15;55.67;95650.47;5099751;28;20751;-77
2022/10/29 09:37:20;;;;;;;10.88;6.75;;;;;;;16.33;54.26;95646.44;5099616;28;20283;-78
2022/10/29 09:39:48;;;;;;;12.82;7.07;;;;;;;16.16;54.34;95637.59;5097956;28;20223;-76
2022/10/29 09:42:20;;;;;;;12.43;7.07;;;;;;;16.37;54.16;95643.03;5100924;28;20190;-81
2022/10/29 09:44:52;;;;;;;10.55;5.82;;;;;;;16.55;55.21;95630.72;5100063;28;20556;-78
2022/10/29 09:47:32;;;;;;;9.18;6.18;;;;;;;16.50;54.09;95628.22;5098395;28;20209;-78
2022/10/29 09:50:11;;;;;;;10.18;6.63;;;;;;;16.81;52.93;95628.47;5099907;28;20602;-78
2022/10/29 09:52:41;;;;;;;15.07;7.47;;;;;;;17.11;53.15;95620.00;5099649;28;20648;-77
2022/10/29 09:55:18;;;;;;;10.68;6.10;;;;;;;17.24;52.40;95613.38;5097295;28;20217;-78
2022/10/29 09:57:45;;;;;;;18.88;6.63;;;;;;;17.07;52.99;95598.03;5100362;28;20206;-77
2022/10/29 10:00:18;;;;;;;8.32;5.63;;;;;;;17.33;51.55;95605.84;5097353;28;20255;-78
2022/10/29 10:02:53;;;;;;;11.52;5.80;;;;;;;17.26;51.68;95600.94;5099532;28;20197;-80
2022/10/29 10:05:24;;;;;;;10.85;4.70;;;;;;;17.31;51.37;95602.66;5101212;28;20301;-78
2022/10/29 10:08:08;;;;;;;10.98;5.88;;;;;;;17.33;51.63;95594.88;5101040;28;20335;-77
2022/10/29 10:10:39;;;;;;;11.90;4.53;;;;;;;17.43;51.43;95591.66;5104443;28;20201;-78
2022/10/29 10:13:06;;;;;;;10.00;4.78;;;;;;;17.54;51.53;95579.03;5102738;28;20198;-77
2022/10/29 10:15:35;;;;;;;12.15;6.07;;;;;;;17.45;50.89;95586.63;5105986;28;20282;-79
2022/10/29 10:18:03;;;;;;;9.18;5.32;;;;;;;17.85;50.31;95577.56;5099893;28;20251;-78
2022/10/29 10:20:37;;;;;;;10.75;4.93;;;;;;;17.70;50.61;95566.22;5103536;28;20653;-77
2022/10/29 10:23:20;;;;;;;10.15;5.20;;;;;;;17.61;50.70;95572.97;5102961;28;20259;-81
2022/10/29 10:25:49;;;;;;;8.75;5.10;;;;;;;17.54;51.38;95561.81;5104242;28;20222;-76
2022/10/29 10:28:18;;;;;;;8.68;4.88;;;;;;;17.61;50.97;95554.59;5104197;28;20205;-80
2022/10/29 10:30:45;;;;;;;9.23;5.43;;;;;;;17.80;50.30;95551.22;5102329;28;20190;-79
2022/10/29 10:33:25;;;;;;;9.68;5.28;;;;;;;17.90;50.24;95547.19;5102838;28;20323;-83
2022/10/29 10:35:54;;;;;;;6.55;4.28;;;;;;;18.05;50.71;95538.16;5102129;28;20278;-83
2022/10/29 10:38:21;;;;;;;6.18;3.40;;;;;;;18.34;49.64;95539.66;5102897;28;20294;-79
2022/10/29 10:40:57;;;;;;;5.72;2.85;;;;;;;18.19;49.13;95538.50;5102954;28;20647;-82
2022/10/29 10:43:25;;;;;;;3.83;2.42;;;;;;;18.48;48.70;95532.56;5102064;28;20190;-81
2022/10/29 10:45:56;;;;;;;4.40;2.67;;;;;;;18.07;49.24;95530.38;5102172;28;20709;-81
2022/10/29 10:48:26;;;;;;;6.80;3.33;;;;;;;18.02;50.47;95527.91;5102280;28;20262;-81
2022/10/29 10:51:09;;;;;;;6.50;3.40;;;;;;;18.36;49.35;95521.69;5106786;28;20204;-80
2022/10/29 10:53:39;;;;;;;6.40;3.03;;;;;;;18.65;48.27;95511.44;5102053;28;20208;-78
2022/10/29 10:56:17;;;;;;;5.80;3.50;;;;;;;18.81;47.85;95510.25;5103761;28;20221;-78
2022/10/29 10:58:49;;;;;;;5.32;3.25;;;;;;;18.74;48.33;95507.31;5102527;28;20668;-78
2022/10/29 11:01:21;;;;;;;3.85;3.10;;;;;;;18.51;49.63;95508.31;5106018;28;20684;-76
2022/10/29 11:03:49;;;;;;;6.25;3.25;;;;;;;18.63;48.45;95508.25;5100943;28;20189;-77
2022/10/29 11:06:20;;;;;;;6.05;3.17;;;;;;;18.64;48.28;95502.41;5101982;28;20206;-77
2022/10/29 11:08:53;;;;;;;5.22;2.83;;;;;;;18.76;48.07;95504.22;5105675;28;20556;-78
2022/10/29 11:11:28;;;;;;;6.20;3.42;;;;;;;19.02;47.54;95500.88;5100995;28;20565;-79
2022/10/29 11:14:00;;;;;;;4.97;3.08;;;;;;;19.03;47.40;95489.53;5102521;28;20201;-78
2022/10/29 11:16:33;;;;;;;4.43;3.03;;;;;;;19.12;47.16;95481.88;5101102;28;20673;-76
2022/10/29 11:19:05;;;;;;;7.15;3.45;;;;;;;19.43;46.46;95486.41;5098002;28;20212;-76
2022/10/29 11:21:39;;;;;;;6.20;3.25;;;;;;;19.52;46.27;95483.50;5111275;28;20243;-79
2022/10/29 11:24:12;;;;;;;6.20;3.20;;;;;;;19.67;46.17;95474.34;5110910;28;20206;-79
2022/10/29 11:26:47;;;;;;;5.93;2.58;;;;;;;19.81;45.59;95462.81;5110807;28;20201;-80
2022/10/29 11:29:22;;;;;;;4.32;2.38;;;;;;;19.92;45.22;95460.25;5110786;28;20623;-81
2022/10/29 11:31:55;;;;;;;3.22;2.08;;;;;;;19.76;44.74;95454.84;5110666;28;20197;-80
2022/10/29 11:34:30;;;;;;;5.05;2.38;;;;;;;19.72;44.03;95448.50;5110488;28;20566;-78
2022/10/29 11:37:03;;;;;;;3.97;2.42;;;;;;;19.66;43.16;95448.00;5110892;28;20244;-77
2022/10/29 11:39:36;;;;;;;5.43;2.30;;;;;;;19.76;43.94;95450.16;5107817;28;20284;-77
2022/10/29 11:42:05;;;;;;;3.42;1.95;;;;;;;19.73;43.83;95444.59;5100530;28;20281;-77
2022/10/29 11:44:39;;;;;;;4.82;2.35;;;;;;;19.57;43.27;95450.19;5110399;28;20205;-77
2022/10/29 11:47:30;;;;;;;2.40;2.10;;;;;;;19.45;43.71;95442.88;5110634;28;20237;-79
2022/10/29 11:50:14;;;;;;;3.53;2.20;;;;;;;19.34;43.93;95449.34;5097574;28;20201;-78